sensor_id;sensor_type;location;lat;lon;timestamp;P1;durP1;ratioP1;P2;durP2;ratioP2
11588;SDS011;5850;51.360;12.362;2023-07-22T00:02:13;7.43;;;5.07;;
11588;SDS011;5850;51.360;12.362;2023-07-22T00:04:41;5.53;;;4.30;;
11588;SDS011;5850;51.360;12.362;2023-07-22T00:07:10;5.93;;;5.33;;
11588;SDS011;5850;51.360;12.362;2023-07-22T00:09:39;6.50;;;5.67;;
11588;SDS011;5850;51.360;12.362;2023-07-22T00:12:08;6.00;;;5.30;;
11588;SDS011;5850;51.360;12.362;2023-07-22T00:14:40;7.87;;;5.30;;
11588;SDS011;5850;51.360;12.362;2023-07-22T00:17:08;5.57;;;5.07;;
11588;SDS011;5850;51.360;12.362;2023-07-22T00:19:37;7.43;;;5.77;;
11588;SDS011;5850;51.360;12.362;2023-07-22T00:22:05;7.70;;;5.70;;
11588;SDS011;5850;51.360;12.362;2023-07-22T00:24:34;8.30;;;5.70;;
11588;SDS011;5850;51.360;12.362;2023-07-22T00:27:03;7.00;;;5.73;;
11588;SDS011;5850;51.360;12.362;2023-07-22T00:29:34;6.63;;;5.97;;
11588;SDS011;5850;51.360;12.362;2023-07-22T00:32:04;7.00;;;6.30;;
11588;SDS011;5850;51.360;12.362;2023-07-22T00:34:35;8.57;;;5.77;;
11588;SDS011;5850;51.360;12.362;2023-07-22T00:37:04;7.17;;;6.10;;
11588;SDS011;5850;51.360;12.362;2023-07-22T00:39:32;6.50;;;5.93;;
11588;SDS011;5850;51.360;12.362;2023-07-22T00:42:01;8.27;;;6.17;;
11588;SDS011;5850;51.360;12.362;2023-07-22T00:44:29;6.73;;;6.10;;
11588;SDS011;5850;51.360;12.362;2023-07-22T00:46:58;6.43;;;5.93;;
11588;SDS011;5850;51.360;12.362;2023-07-22T00:49:27;7.60;;;6.90;;
11588;SDS011;5850;51.360;12.362;2023-07-22T00:51:57;7.07;;;6.37;;
11588;SDS011;5850;51.360;12.362;2023-07-22T00:54:29;7.47;;;6.43;;
11588;SDS011;5850;51.360;12.362;2023-07-22T00:56:58;6.83;;;6.07;;
11588;SDS011;5850;51.360;12.362;2023-07-22T00:59:26;8.03;;;6.70;;
11588;SDS011;5850;51.360;12.362;2023-07-22T01:01:55;7.50;;;6.27;;
11588;SDS011;5850;51.360;12.362;2023-07-22T01:04:24;6.73;;;6.13;;
11588;SDS011;5850;51.360;12.362;2023-07-22T01:06:52;7.03;;;6.43;;
11588;SDS011;5850;51.360;12.362;2023-07-22T01:09:21;7.63;;;6.37;;
11588;SDS011;5850;51.360;12.362;2023-07-22T01:11:50;6.80;;;6.20;;
11588;SDS011;5850;51.360;12.362;2023-07-22T01:14:18;8.57;;;6.50;;
11588;SDS011;5850;51.360;12.362;2023-07-22T01:16:46;6.97;;;6.37;;
11588;SDS011;5850;51.360;12.362;2023-07-22T01:19:16;7.27;;;6.50;;
11588;SDS011;5850;51.360;12.362;2023-07-22T01:21:46;7.17;;;6.57;;
11588;SDS011;5850;51.360;12.362;2023-07-22T01:24:15;6.67;;;6.10;;
11588;SDS011;5850;51.360;12.362;2023-07-22T01:26:43;7.30;;;6.70;;
11588;SDS011;5850;51.360;12.362;2023-07-22T01:29:12;8.63;;;6.80;;
11588;SDS011;5850;51.360;12.362;2023-07-22T01:31:41;7.93;;;7.17;;
11588;SDS011;5850;51.360;12.362;2023-07-22T01:34:11;7.60;;;6.77;;
11588;SDS011;5850;51.360;12.362;2023-07-22T01:36:39;7.27;;;6.67;;
11588;SDS011;5850;51.360;12.362;2023-07-22T01:39:09;7.93;;;7.10;;
11588;SDS011;5850;51.360;12.362;2023-07-22T01:41:38;8.60;;;7.80;;
11588;SDS011;5850;51.360;12.362;2023-07-22T01:44:06;7.23;;;6.63;;
11588;SDS011;5850;51.360;12.362;2023-07-22T01:46:35;8.50;;;6.40;;
11588;SDS011;5850;51.360;12.362;2023-07-22T01:49:05;7.93;;;7.13;;
11588;SDS011;5850;51.360;12.362;2023-07-22T01:51:39;6.87;;;6.27;;
11588;SDS011;5850;51.360;12.362;2023-07-22T01:54:07;8.07;;;7.20;;
11588;SDS011;5850;51.360;12.362;2023-07-22T01:56:36;8.13;;;6.93;;
11588;SDS011;5850;51.360;12.362;2023-07-22T01:59:06;7.67;;;6.97;;
11588;SDS011;5850;51.360;12.362;2023-07-22T02:01:34;9.20;;;7.50;;
11588;SDS011;5850;51.360;12.362;2023-07-22T02:04:03;8.00;;;7.30;;
11588;SDS011;5850;51.360;12.362;2023-07-22T02:06:33;8.73;;;7.23;;
11588;SDS011;5850;51.360;12.362;2023-07-22T02:09:02;10.37;;;7.73;;
11588;SDS011;5850;51.360;12.362;2023-07-22T02:11:35;8.00;;;7.17;;
11588;SDS011;5850;51.360;12.362;2023-07-22T02:14:04;7.83;;;7.13;;
11588;SDS011;5850;51.360;12.362;2023-07-22T02:16:36;6.97;;;6.37;;
11588;SDS011;5850;51.360;12.362;2023-07-22T02:19:04;6.70;;;6.10;;
11588;SDS011;5850;51.360;12.362;2023-07-22T02:21:33;7.70;;;6.90;;
11588;SDS011;5850;51.360;12.362;2023-07-22T02:24:01;8.00;;;7.20;;
11588;SDS011;5850;51.360;12.362;2023-07-22T02:26:30;8.90;;;8.10;;
11588;SDS011;5850;51.360;12.362;2023-07-22T02:28:58;9.00;;;7.73;;
11588;SDS011;5850;51.360;12.362;2023-07-22T02:31:26;10.00;;;7.83;;
11588;SDS011;5850;51.360;12.362;2023-07-22T02:33:55;9.33;;;8.37;;
11588;SDS011;5850;51.360;12.362;2023-07-22T02:36:23;10.90;;;8.10;;
11588;SDS011;5850;51.360;12.362;2023-07-22T02:38:52;10.50;;;8.20;;
11588;SDS011;5850;51.360;12.362;2023-07-22T02:41:21;8.60;;;7.80;;
11588;SDS011;5850;51.360;12.362;2023-07-22T02:43:49;8.17;;;7.47;;
11588;SDS011;5850;51.360;12.362;2023-07-22T02:46:18;9.83;;;8.83;;
11588;SDS011;5850;51.360;12.362;2023-07-22T02:48:46;8.00;;;7.30;;
11588;SDS011;5850;51.360;12.362;2023-07-22T02:51:15;8.50;;;7.70;;
11588;SDS011;5850;51.360;12.362;2023-07-22T02:53:43;9.73;;;8.60;;
11588;SDS011;5850;51.360;12.362;2023-07-22T02:56:13;8.90;;;8.07;;
11588;SDS011;5850;51.360;12.362;2023-07-22T02:58:41;10.90;;;8.20;;
11588;SDS011;5850;51.360;12.362;2023-07-22T03:01:10;9.67;;;8.77;;
11588;SDS011;5850;51.360;12.362;2023-07-22T03:03:38;9.60;;;8.47;;
11588;SDS011;5850;51.360;12.362;2023-07-22T03:06:18;9.07;;;8.27;;
11588;SDS011;5850;51.360;12.362;2023-07-22T03:08:46;10.10;;;9.10;;
11588;SDS011;5850;51.360;12.362;2023-07-22T03:11:15;10.67;;;9.10;;
11588;SDS011;5850;51.360;12.362;2023-07-22T03:13:43;11.07;;;9.13;;
11588;SDS011;5850;51.360;12.362;2023-07-22T03:16:13;10.50;;;9.50;;
11588;SDS011;5850;51.360;12.362;2023-07-22T03:18:42;12.90;;;10.17;;
11588;SDS011;5850;51.360;12.362;2023-07-22T03:21:10;10.17;;;8.87;;
11588;SDS011;5850;51.360;12.362;2023-07-22T03:23:39;9.40;;;8.60;;
11588;SDS011;5850;51.360;12.362;2023-07-22T03:26:07;8.97;;;8.07;;
11588;SDS011;5850;51.360;12.362;2023-07-22T03:28:35;9.60;;;8.53;;
11588;SDS011;5850;51.360;12.362;2023-07-22T03:31:04;11.17;;;7.73;;
11588;SDS011;5850;51.360;12.362;2023-07-22T03:33:32;8.63;;;7.80;;
11588;SDS011;5850;51.360;12.362;2023-07-22T03:36:01;9.57;;;8.10;;
11588;SDS011;5850;51.360;12.362;2023-07-22T03:38:29;9.10;;;8.20;;
11588;SDS011;5850;51.360;12.362;2023-07-22T03:40:58;9.33;;;7.80;;
11588;SDS011;5850;51.360;12.362;2023-07-22T03:43:26;8.57;;;7.77;;
11588;SDS011;5850;51.360;12.362;2023-07-22T03:45:54;8.70;;;7.90;;
11588;SDS011;5850;51.360;12.362;2023-07-22T03:48:23;8.67;;;7.77;;
11588;SDS011;5850;51.360;12.362;2023-07-22T03:50:51;10.93;;;8.10;;
11588;SDS011;5850;51.360;12.362;2023-07-22T03:53:37;7.73;;;7.13;;
11588;SDS011;5850;51.360;12.362;2023-07-22T03:56:06;8.47;;;7.67;;
11588;SDS011;5850;51.360;12.362;2023-07-22T03:58:34;8.27;;;7.17;;
11588;SDS011;5850;51.360;12.362;2023-07-22T04:01:02;8.07;;;7.30;;
11588;SDS011;5850;51.360;12.362;2023-07-22T04:03:31;8.00;;;7.30;;
11588;SDS011;5850;51.360;12.362;2023-07-22T04:06:00;9.07;;;7.30;;
11588;SDS011;5850;51.360;12.362;2023-07-22T04:08:28;8.83;;;7.97;;
11588;SDS011;5850;51.360;12.362;2023-07-22T04:10:57;8.07;;;7.20;;
11588;SDS011;5850;51.360;12.362;2023-07-22T04:13:26;8.57;;;7.67;;
11588;SDS011;5850;51.360;12.362;2023-07-22T04:15:54;11.57;;;7.60;;
11588;SDS011;5850;51.360;12.362;2023-07-22T04:18:23;9.33;;;8.20;;
11588;SDS011;5850;51.360;12.362;2023-07-22T04:20:55;8.90;;;7.53;;
11588;SDS011;5850;51.360;12.362;2023-07-22T04:23:24;9.67;;;7.10;;
11588;SDS011;5850;51.360;12.362;2023-07-22T04:25:53;11.67;;;7.67;;
11588;SDS011;5850;51.360;12.362;2023-07-22T04:28:21;9.17;;;7.40;;
11588;SDS011;5850;51.360;12.362;2023-07-22T04:30:56;8.27;;;7.47;;
11588;SDS011;5850;51.360;12.362;2023-07-22T04:33:27;12.30;;;7.33;;
11588;SDS011;5850;51.360;12.362;2023-07-22T04:35:57;7.23;;;6.60;;
11588;SDS011;5850;51.360;12.362;2023-07-22T04:38:27;9.80;;;7.40;;
11588;SDS011;5850;51.360;12.362;2023-07-22T04:40:55;8.93;;;7.70;;
11588;SDS011;5850;51.360;12.362;2023-07-22T04:43:23;8.73;;;7.43;;
11588;SDS011;5850;51.360;12.362;2023-07-22T04:45:52;9.60;;;7.43;;
11588;SDS011;5850;51.360;12.362;2023-07-22T04:48:22;8.30;;;7.53;;
11588;SDS011;5850;51.360;12.362;2023-07-22T04:50:50;8.67;;;7.37;;
11588;SDS011;5850;51.360;12.362;2023-07-22T04:53:18;8.67;;;7.57;;
11588;SDS011;5850;51.360;12.362;2023-07-22T04:55:48;10.17;;;7.27;;
11588;SDS011;5850;51.360;12.362;2023-07-22T04:58:16;7.00;;;6.40;;
11588;SDS011;5850;51.360;12.362;2023-07-22T05:00:46;8.23;;;7.40;;
11588;SDS011;5850;51.360;12.362;2023-07-22T05:03:15;12.60;;;7.27;;
11588;SDS011;5850;51.360;12.362;2023-07-22T05:05:44;7.37;;;6.67;;
11588;SDS011;5850;51.360;12.362;2023-07-22T05:08:12;8.87;;;6.83;;
11588;SDS011;5850;51.360;12.362;2023-07-22T05:10:41;7.90;;;7.03;;
11588;SDS011;5850;51.360;12.362;2023-07-22T05:13:09;8.43;;;7.53;;
11588;SDS011;5850;51.360;12.362;2023-07-22T05:15:37;9.43;;;7.10;;
11588;SDS011;5850;51.360;12.362;2023-07-22T05:18:06;9.50;;;7.30;;
11588;SDS011;5850;51.360;12.362;2023-07-22T05:20:34;8.37;;;7.53;;
11588;SDS011;5850;51.360;12.362;2023-07-22T05:23:02;8.13;;;7.23;;
11588;SDS011;5850;51.360;12.362;2023-07-22T05:25:31;7.47;;;6.77;;
11588;SDS011;5850;51.360;12.362;2023-07-22T05:27:59;7.97;;;7.17;;
11588;SDS011;5850;51.360;12.362;2023-07-22T05:30:27;8.30;;;7.50;;
11588;SDS011;5850;51.360;12.362;2023-07-22T05:33:01;7.53;;;6.83;;
11588;SDS011;5850;51.360;12.362;2023-07-22T05:35:30;8.13;;;7.27;;
11588;SDS011;5850;51.360;12.362;2023-07-22T05:37:58;9.40;;;8.33;;
11588;SDS011;5850;51.360;12.362;2023-07-22T05:40:26;11.00;;;7.53;;
11588;SDS011;5850;51.360;12.362;2023-07-22T05:42:55;8.10;;;6.50;;
11588;SDS011;5850;51.360;12.362;2023-07-22T05:45:24;7.47;;;6.43;;
11588;SDS011;5850;51.360;12.362;2023-07-22T05:47:52;7.13;;;6.43;;
11588;SDS011;5850;51.360;12.362;2023-07-22T05:50:20;8.80;;;6.83;;
11588;SDS011;5850;51.360;12.362;2023-07-22T05:52:48;8.30;;;6.80;;
11588;SDS011;5850;51.360;12.362;2023-07-22T05:55:17;10.13;;;6.80;;
11588;SDS011;5850;51.360;12.362;2023-07-22T05:57:45;8.83;;;7.53;;
11588;SDS011;5850;51.360;12.362;2023-07-22T06:00:14;11.93;;;7.77;;
11588;SDS011;5850;51.360;12.362;2023-07-22T06:02:43;7.50;;;6.70;;
11588;SDS011;5850;51.360;12.362;2023-07-22T06:05:12;9.57;;;7.20;;
11588;SDS011;5850;51.360;12.362;2023-07-22T06:07:40;7.60;;;6.80;;
11588;SDS011;5850;51.360;12.362;2023-07-22T06:10:09;7.10;;;6.40;;
11588;SDS011;5850;51.360;12.362;2023-07-22T06:12:37;6.97;;;5.27;;
11588;SDS011;5850;51.360;12.362;2023-07-22T06:15:08;7.17;;;6.10;;
11588;SDS011;5850;51.360;12.362;2023-07-22T06:17:36;6.80;;;6.10;;
11588;SDS011;5850;51.360;12.362;2023-07-22T06:20:05;8.37;;;6.13;;
11588;SDS011;5850;51.360;12.362;2023-07-22T06:22:33;8.90;;;6.33;;
11588;SDS011;5850;51.360;12.362;2023-07-22T06:25:02;6.50;;;5.83;;
11588;SDS011;5850;51.360;12.362;2023-07-22T06:27:31;6.20;;;5.60;;
11588;SDS011;5850;51.360;12.362;2023-07-22T06:30:00;6.63;;;5.10;;
11588;SDS011;5850;51.360;12.362;2023-07-22T06:32:29;6.30;;;5.53;;
11588;SDS011;5850;51.360;12.362;2023-07-22T06:34:57;6.40;;;5.63;;
11588;SDS011;5850;51.360;12.362;2023-07-22T06:37:26;7.13;;;5.97;;
11588;SDS011;5850;51.360;12.362;2023-07-22T06:39:55;7.43;;;5.50;;
11588;SDS011;5850;51.360;12.362;2023-07-22T06:42:23;7.17;;;5.23;;
11588;SDS011;5850;51.360;12.362;2023-07-22T06:44:52;8.87;;;6.13;;
11588;SDS011;5850;51.360;12.362;2023-07-22T06:47:21;6.83;;;5.33;;
11588;SDS011;5850;51.360;12.362;2023-07-22T06:49:49;6.40;;;5.20;;
11588;SDS011;5850;51.360;12.362;2023-07-22T06:52:18;7.47;;;6.00;;
11588;SDS011;5850;51.360;12.362;2023-07-22T06:54:46;5.80;;;5.20;;
11588;SDS011;5850;51.360;12.362;2023-07-22T06:57:15;6.43;;;4.73;;
11588;SDS011;5850;51.360;12.362;2023-07-22T06:59:43;6.17;;;4.93;;
11588;SDS011;5850;51.360;12.362;2023-07-22T07:02:12;6.23;;;5.37;;
11588;SDS011;5850;51.360;12.362;2023-07-22T07:04:40;5.57;;;4.53;;
11588;SDS011;5850;51.360;12.362;2023-07-22T07:07:08;4.83;;;4.33;;
11588;SDS011;5850;51.360;12.362;2023-07-22T07:09:37;12.07;;;8.87;;
11588;SDS011;5850;51.360;12.362;2023-07-22T07:12:06;5.77;;;4.97;;
11588;SDS011;5850;51.360;12.362;2023-07-22T07:14:35;6.10;;;5.10;;
11588;SDS011;5850;51.360;12.362;2023-07-22T07:17:04;5.90;;;5.10;;
11588;SDS011;5850;51.360;12.362;2023-07-22T07:19:32;5.70;;;4.57;;
11588;SDS011;5850;51.360;12.362;2023-07-22T07:22:01;5.17;;;4.63;;
11588;SDS011;5850;51.360;12.362;2023-07-22T07:24:29;6.63;;;4.67;;
11588;SDS011;5850;51.360;12.362;2023-07-22T07:26:57;5.90;;;4.00;;
11588;SDS011;5850;51.360;12.362;2023-07-22T07:29:26;4.60;;;4.20;;
11588;SDS011;5850;51.360;12.362;2023-07-22T07:31:57;4.20;;;3.80;;
11588;SDS011;5850;51.360;12.362;2023-07-22T07:34:26;8.10;;;4.20;;
11588;SDS011;5850;51.360;12.362;2023-07-22T07:36:54;5.13;;;4.53;;
11588;SDS011;5850;51.360;12.362;2023-07-22T07:39:23;7.10;;;4.47;;
11588;SDS011;5850;51.360;12.362;2023-07-22T07:41:51;4.67;;;4.20;;
11588;SDS011;5850;51.360;12.362;2023-07-22T07:44:20;4.97;;;3.90;;
11588;SDS011;5850;51.360;12.362;2023-07-22T07:46:48;5.90;;;4.37;;
11588;SDS011;5850;51.360;12.362;2023-07-22T07:49:17;6.13;;;4.60;;
11588;SDS011;5850;51.360;12.362;2023-07-22T07:51:45;5.50;;;4.20;;
11588;SDS011;5850;51.360;12.362;2023-07-22T07:54:14;4.37;;;3.80;;
11588;SDS011;5850;51.360;12.362;2023-07-22T07:56:42;6.93;;;4.03;;
11588;SDS011;5850;51.360;12.362;2023-07-22T07:59:10;5.07;;;3.90;;
11588;SDS011;5850;51.360;12.362;2023-07-22T08:01:39;4.90;;;3.80;;
11588;SDS011;5850;51.360;12.362;2023-07-22T08:04:08;4.50;;;4.10;;
11588;SDS011;5850;51.360;12.362;2023-07-22T08:06:37;4.03;;;3.63;;
11588;SDS011;5850;51.360;12.362;2023-07-22T08:09:05;5.10;;;3.97;;
11588;SDS011;5850;51.360;12.362;2023-07-22T08:11:33;3.70;;;3.40;;
11588;SDS011;5850;51.360;12.362;2023-07-22T08:14:02;3.93;;;3.53;;
11588;SDS011;5850;51.360;12.362;2023-07-22T08:16:31;6.23;;;4.50;;
11588;SDS011;5850;51.360;12.362;2023-07-22T08:19:00;4.77;;;3.87;;
11588;SDS011;5850;51.360;12.362;2023-07-22T08:21:28;3.90;;;3.50;;
11588;SDS011;5850;51.360;12.362;2023-07-22T08:23:56;5.33;;;4.37;;
11588;SDS011;5850;51.360;12.362;2023-07-22T08:26:24;3.93;;;3.30;;
11588;SDS011;5850;51.360;12.362;2023-07-22T08:28:54;4.40;;;4.00;;
11588;SDS011;5850;51.360;12.362;2023-07-22T08:31:22;4.17;;;3.77;;
11588;SDS011;5850;51.360;12.362;2023-07-22T08:33:51;4.30;;;3.83;;
11588;SDS011;5850;51.360;12.362;2023-07-22T08:36:19;4.37;;;3.97;;
11588;SDS011;5850;51.360;12.362;2023-07-22T08:38:47;5.07;;;4.07;;
11588;SDS011;5850;51.360;12.362;2023-07-22T08:41:16;4.70;;;3.97;;
11588;SDS011;5850;51.360;12.362;2023-07-22T08:43:45;3.90;;;3.13;;
11588;SDS011;5850;51.360;12.362;2023-07-22T08:46:13;4.50;;;4.10;;
11588;SDS011;5850;51.360;12.362;2023-07-22T08:48:43;4.77;;;3.90;;
11588;SDS011;5850;51.360;12.362;2023-07-22T08:51:15;4.17;;;3.77;;
11588;SDS011;5850;51.360;12.362;2023-07-22T08:53:45;4.47;;;3.20;;
11588;SDS011;5850;51.360;12.362;2023-07-22T08:56:34;5.20;;;4.70;;
11588;SDS011;5850;51.360;12.362;2023-07-22T08:59:03;5.37;;;4.37;;
11588;SDS011;5850;51.360;12.362;2023-07-22T09:01:33;4.67;;;4.03;;
11588;SDS011;5850;51.360;12.362;2023-07-22T09:04:02;5.93;;;3.60;;
11588;SDS011;5850;51.360;12.362;2023-07-22T09:06:31;4.27;;;3.50;;
11588;SDS011;5850;51.360;12.362;2023-07-22T09:08:59;5.03;;;4.03;;
11588;SDS011;5850;51.360;12.362;2023-07-22T09:11:31;5.43;;;3.60;;
11588;SDS011;5850;51.360;12.362;2023-07-22T09:13:59;4.47;;;3.90;;
11588;SDS011;5850;51.360;12.362;2023-07-22T09:16:30;4.83;;;4.20;;
11588;SDS011;5850;51.360;12.362;2023-07-22T09:18:59;4.80;;;4.40;;
11588;SDS011;5850;51.360;12.362;2023-07-22T09:21:27;3.93;;;3.57;;
11588;SDS011;5850;51.360;12.362;2023-07-22T09:23:55;4.33;;;3.90;;
11588;SDS011;5850;51.360;12.362;2023-07-22T09:26:24;4.23;;;3.80;;
11588;SDS011;5850;51.360;12.362;2023-07-22T09:31:21;5.63;;;3.53;;
11588;SDS011;5850;51.360;12.362;2023-07-22T09:33:51;4.30;;;3.73;;
11588;SDS011;5850;51.360;12.362;2023-07-22T09:36:21;4.37;;;3.40;;
11588;SDS011;5850;51.360;12.362;2023-07-22T09:38:59;3.63;;;3.33;;
11588;SDS011;5850;51.360;12.362;2023-07-22T09:41:30;4.27;;;3.80;;
11588;SDS011;5850;51.360;12.362;2023-07-22T09:44:02;3.83;;;3.53;;
11588;SDS011;5850;51.360;12.362;2023-07-22T09:46:31;5.00;;;3.80;;
11588;SDS011;5850;51.360;12.362;2023-07-22T09:49:02;3.63;;;3.30;;
11588;SDS011;5850;51.360;12.362;2023-07-22T09:51:33;3.93;;;3.20;;
11588;SDS011;5850;51.360;12.362;2023-07-22T09:54:26;3.60;;;3.23;;
11588;SDS011;5850;51.360;12.362;2023-07-22T09:56:55;4.53;;;3.63;;
11588;SDS011;5850;51.360;12.362;2023-07-22T09:59:23;4.03;;;3.23;;
11588;SDS011;5850;51.360;12.362;2023-07-22T10:01:52;3.40;;;3.10;;
11588;SDS011;5850;51.360;12.362;2023-07-22T10:04:21;4.23;;;3.70;;
11588;SDS011;5850;51.360;12.362;2023-07-22T10:06:49;5.13;;;3.30;;
11588;SDS011;5850;51.360;12.362;2023-07-22T10:09:18;3.77;;;3.37;;
11588;SDS011;5850;51.360;12.362;2023-07-22T10:11:49;3.67;;;3.30;;
11588;SDS011;5850;51.360;12.362;2023-07-22T10:14:17;3.30;;;3.00;;
11588;SDS011;5850;51.360;12.362;2023-07-22T10:16:46;3.60;;;3.17;;
11588;SDS011;5850;51.360;12.362;2023-07-22T10:19:14;4.53;;;3.20;;
11588;SDS011;5850;51.360;12.362;2023-07-22T10:21:43;4.20;;;3.80;;
11588;SDS011;5850;51.360;12.362;2023-07-22T10:24:11;3.93;;;3.63;;
11588;SDS011;5850;51.360;12.362;2023-07-22T10:26:40;4.37;;;3.73;;
11588;SDS011;5850;51.360;12.362;2023-07-22T10:29:13;5.30;;;3.30;;
11588;SDS011;5850;51.360;12.362;2023-07-22T10:31:41;4.03;;;3.63;;
11588;SDS011;5850;51.360;12.362;2023-07-22T10:34:09;4.50;;;3.33;;
11588;SDS011;5850;51.360;12.362;2023-07-22T10:36:38;4.00;;;3.63;;
11588;SDS011;5850;51.360;12.362;2023-07-22T10:39:06;4.33;;;3.57;;
11588;SDS011;5850;51.360;12.362;2023-07-22T10:41:34;4.60;;;3.20;;
11588;SDS011;5850;51.360;12.362;2023-07-22T10:44:06;3.53;;;3.07;;
11588;SDS011;5850;51.360;12.362;2023-07-22T10:46:38;4.00;;;3.40;;
11588;SDS011;5850;51.360;12.362;2023-07-22T10:49:13;3.97;;;3.57;;
11588;SDS011;5850;51.360;12.362;2023-07-22T10:51:50;3.67;;;3.37;;
11588;SDS011;5850;51.360;12.362;2023-07-22T10:54:32;6.17;;;3.43;;
11588;SDS011;5850;51.360;12.362;2023-07-22T10:57:03;3.47;;;3.17;;
11588;SDS011;5850;51.360;12.362;2023-07-22T10:59:51;4.63;;;3.00;;
11588;SDS011;5850;51.360;12.362;2023-07-22T11:02:23;4.07;;;3.40;;
11588;SDS011;5850;51.360;12.362;2023-07-22T11:04:56;3.47;;;3.17;;
11588;SDS011;5850;51.360;12.362;2023-07-22T11:07:53;3.97;;;3.20;;
11588;SDS011;5850;51.360;12.362;2023-07-22T11:10:30;3.47;;;3.17;;
11588;SDS011;5850;51.360;12.362;2023-07-22T11:12:58;2.97;;;2.60;;
11588;SDS011;5850;51.360;12.362;2023-07-22T11:15:27;3.20;;;2.83;;
11588;SDS011;5850;51.360;12.362;2023-07-22T11:17:56;3.53;;;3.13;;
11588;SDS011;5850;51.360;12.362;2023-07-22T11:20:25;3.30;;;3.00;;
11588;SDS011;5850;51.360;12.362;2023-07-22T11:22:53;2.70;;;2.50;;
11588;SDS011;5850;51.360;12.362;2023-07-22T11:25:21;4.20;;;3.77;;
11588;SDS011;5850;51.360;12.362;2023-07-22T11:27:50;3.77;;;3.03;;
11588;SDS011;5850;51.360;12.362;2023-07-22T11:30:18;4.10;;;3.10;;
11588;SDS011;5850;51.360;12.362;2023-07-22T11:32:46;3.83;;;3.10;;
11588;SDS011;5850;51.360;12.362;2023-07-22T11:35:17;3.03;;;2.73;;
11588;SDS011;5850;51.360;12.362;2023-07-22T11:37:46;5.00;;;3.40;;
11588;SDS011;5850;51.360;12.362;2023-07-22T11:40:14;4.03;;;2.90;;
11588;SDS011;5850;51.360;12.362;2023-07-22T11:42:43;3.40;;;3.10;;
11588;SDS011;5850;51.360;12.362;2023-07-22T11:45:13;4.47;;;3.10;;
11588;SDS011;5850;51.360;12.362;2023-07-22T11:47:42;3.50;;;3.20;;
11588;SDS011;5850;51.360;12.362;2023-07-22T11:50:11;4.33;;;2.97;;
11588;SDS011;5850;51.360;12.362;2023-07-22T11:52:39;4.03;;;3.10;;
11588;SDS011;5850;51.360;12.362;2023-07-22T11:55:08;3.60;;;3.30;;
11588;SDS011;5850;51.360;12.362;2023-07-22T11:57:52;3.93;;;3.03;;
11588;SDS011;5850;51.360;12.362;2023-07-22T12:00:21;3.93;;;3.47;;
11588;SDS011;5850;51.360;12.362;2023-07-22T12:02:49;3.30;;;3.00;;
11588;SDS011;5850;51.360;12.362;2023-07-22T12:05:23;4.13;;;3.00;;
11588;SDS011;5850;51.360;12.362;2023-07-22T12:07:51;3.37;;;3.07;;
11588;SDS011;5850;51.360;12.362;2023-07-22T12:10:19;3.80;;;3.50;;
11588;SDS011;5850;51.360;12.362;2023-07-22T12:12:48;4.97;;;3.00;;
11588;SDS011;5850;51.360;12.362;2023-07-22T12:15:17;2.70;;;2.50;;
11588;SDS011;5850;51.360;12.362;2023-07-22T12:20:23;2.80;;;2.57;;
11588;SDS011;5850;51.360;12.362;2023-07-22T12:22:53;11.10;;;4.13;;
11588;SDS011;5850;51.360;12.362;2023-07-22T12:25:22;5.33;;;2.97;;
11588;SDS011;5850;51.360;12.362;2023-07-22T12:27:51;4.73;;;2.97;;
11588;SDS011;5850;51.360;12.362;2023-07-22T12:30:19;3.53;;;3.23;;
11588;SDS011;5850;51.360;12.362;2023-07-22T12:32:48;3.27;;;2.97;;
11588;SDS011;5850;51.360;12.362;2023-07-22T12:35:16;3.60;;;3.30;;
11588;SDS011;5850;51.360;12.362;2023-07-22T12:37:45;6.57;;;3.50;;
11588;SDS011;5850;51.360;12.362;2023-07-22T12:40:14;3.30;;;2.90;;
11588;SDS011;5850;51.360;12.362;2023-07-22T12:42:42;4.10;;;3.60;;
11588;SDS011;5850;51.360;12.362;2023-07-22T12:45:12;4.77;;;3.63;;
11588;SDS011;5850;51.360;12.362;2023-07-22T12:47:40;3.47;;;3.17;;
11588;SDS011;5850;51.360;12.362;2023-07-22T12:50:09;4.07;;;3.67;;
11588;SDS011;5850;51.360;12.362;2023-07-22T12:52:37;3.60;;;3.30;;
11588;SDS011;5850;51.360;12.362;2023-07-22T12:55:06;3.80;;;3.33;;
11588;SDS011;5850;51.360;12.362;2023-07-22T12:57:34;4.33;;;3.67;;
11588;SDS011;5850;51.360;12.362;2023-07-22T13:00:03;4.83;;;3.90;;
11588;SDS011;5850;51.360;12.362;2023-07-22T13:02:36;4.30;;;3.50;;
11588;SDS011;5850;51.360;12.362;2023-07-22T13:05:05;5.53;;;4.00;;
11588;SDS011;5850;51.360;12.362;2023-07-22T13:07:34;8.67;;;5.73;;
11588;SDS011;5850;51.360;12.362;2023-07-22T13:10:03;5.90;;;5.00;;
11588;SDS011;5850;51.360;12.362;2023-07-22T13:12:35;6.17;;;4.43;;
11588;SDS011;5850;51.360;12.362;2023-07-22T13:15:04;4.00;;;3.60;;
11588;SDS011;5850;51.360;12.362;2023-07-22T13:17:32;4.77;;;4.27;;
11588;SDS011;5850;51.360;12.362;2023-07-22T13:20:01;6.23;;;3.67;;
11588;SDS011;5850;51.360;12.362;2023-07-22T13:22:33;3.77;;;3.40;;
11588;SDS011;5850;51.360;12.362;2023-07-22T13:25:05;4.30;;;3.47;;
11588;SDS011;5850;51.360;12.362;2023-07-22T13:27:35;3.87;;;3.47;;
11588;SDS011;5850;51.360;12.362;2023-07-22T13:30:07;4.33;;;3.93;;
11588;SDS011;5850;51.360;12.362;2023-07-22T13:32:36;3.37;;;3.03;;
11588;SDS011;5850;51.360;12.362;2023-07-22T13:35:06;3.33;;;3.03;;
11588;SDS011;5850;51.360;12.362;2023-07-22T13:37:35;3.13;;;2.87;;
11588;SDS011;5850;51.360;12.362;2023-07-22T13:40:04;3.63;;;3.33;;
11588;SDS011;5850;51.360;12.362;2023-07-22T13:42:37;3.70;;;3.40;;
11588;SDS011;5850;51.360;12.362;2023-07-22T13:45:05;3.90;;;3.47;;
11588;SDS011;5850;51.360;12.362;2023-07-22T13:47:34;3.73;;;3.23;;
11588;SDS011;5850;51.360;12.362;2023-07-22T13:50:03;3.90;;;3.30;;
11588;SDS011;5850;51.360;12.362;2023-07-22T13:52:32;4.20;;;3.53;;
11588;SDS011;5850;51.360;12.362;2023-07-22T13:55:00;3.57;;;3.27;;
11588;SDS011;5850;51.360;12.362;2023-07-22T13:57:28;5.80;;;4.60;;
11588;SDS011;5850;51.360;12.362;2023-07-22T13:59:56;3.77;;;3.47;;
11588;SDS011;5850;51.360;12.362;2023-07-22T14:02:25;3.27;;;2.97;;
11588;SDS011;5850;51.360;12.362;2023-07-22T14:04:54;4.83;;;4.20;;
11588;SDS011;5850;51.360;12.362;2023-07-22T14:07:22;10.23;;;6.83;;
11588;SDS011;5850;51.360;12.362;2023-07-22T14:09:50;6.27;;;4.77;;
11588;SDS011;5850;51.360;12.362;2023-07-22T14:12:19;6.37;;;3.97;;
11588;SDS011;5850;51.360;12.362;2023-07-22T14:14:47;5.77;;;3.53;;
11588;SDS011;5850;51.360;12.362;2023-07-22T14:17:16;5.07;;;4.00;;
11588;SDS011;5850;51.360;12.362;2023-07-22T14:19:44;3.70;;;3.40;;
11588;SDS011;5850;51.360;12.362;2023-07-22T14:22:12;4.57;;;4.17;;
11588;SDS011;5850;51.360;12.362;2023-07-22T14:24:41;5.33;;;4.50;;
11588;SDS011;5850;51.360;12.362;2023-07-22T14:27:09;4.50;;;3.60;;
11588;SDS011;5850;51.360;12.362;2023-07-22T14:29:38;5.23;;;4.10;;
11588;SDS011;5850;51.360;12.362;2023-07-22T14:32:06;4.60;;;4.17;;
11588;SDS011;5850;51.360;12.362;2023-07-22T14:34:36;4.97;;;4.20;;
11588;SDS011;5850;51.360;12.362;2023-07-22T14:37:04;4.00;;;3.60;;
11588;SDS011;5850;51.360;12.362;2023-07-22T14:39:32;3.70;;;3.30;;
11588;SDS011;5850;51.360;12.362;2023-07-22T14:42:01;4.37;;;3.57;;
11588;SDS011;5850;51.360;12.362;2023-07-22T14:44:29;3.77;;;3.23;;
11588;SDS011;5850;51.360;12.362;2023-07-22T14:46:58;3.30;;;3.00;;
11588;SDS011;5850;51.360;12.362;2023-07-22T14:49:26;3.23;;;2.87;;
11588;SDS011;5850;51.360;12.362;2023-07-22T14:51:54;3.40;;;3.10;;
11588;SDS011;5850;51.360;12.362;2023-07-22T14:54:23;3.57;;;2.93;;
11588;SDS011;5850;51.360;12.362;2023-07-22T14:56:51;4.93;;;3.30;;
11588;SDS011;5850;51.360;12.362;2023-07-22T14:59:19;5.57;;;3.30;;
11588;SDS011;5850;51.360;12.362;2023-07-22T15:01:48;4.53;;;3.80;;
11588;SDS011;5850;51.360;12.362;2023-07-22T15:04:16;4.10;;;3.70;;
11588;SDS011;5850;51.360;12.362;2023-07-22T15:06:44;3.50;;;3.20;;